Weather at Aeropuerto Internacional de Tapachula

Public forecast

Using degrees Celsius for public forecast. Weather courtesy of forecast.io.

Current aviation weather report (METAR) for Aeropuerto Internacional de Tapachula

2024/05/28 21:41 (retrieved 58 minutes ago)

MMTP 282141Z 23008KT 8SM SCT080 35/25 A2979 RMK 8/070 HZY

Aviation forecast (TAF) for Aeropuerto Internacional de Tapachula

2024/05/28 18:19 (retrieved 4 hours ago)

TAF MMTP 281712Z 2818/2918 24010KT P6SM BKN030 TEMPO 2823/2903 4SM TSRA BKN030CB FM290400 00000KT P6SM SCT030 BKN100 BECMG 2917/2918 24001KT SCT030